sensor_id;sensor_type;location;lat;lon;timestamp;temperature;humidity
3770;DHT22;1900;48.890;9.190;2023-08-24T00:01:10;29.60;47.20
3770;DHT22;1900;48.890;9.190;2023-08-24T00:03:40;29.50;47.20
3770;DHT22;1900;48.890;9.190;2023-08-24T00:06:06;29.50;47.30
3770;DHT22;1900;48.890;9.190;2023-08-24T00:08:31;29.50;47.30
3770;DHT22;1900;48.890;9.190;2023-08-24T00:10:58;29.50;47.30
3770;DHT22;1900;48.890;9.190;2023-08-24T00:13:23;29.40;47.30
3770;DHT22;1900;48.890;9.190;2023-08-24T00:15:49;29.40;47.40
3770;DHT22;1900;48.890;9.190;2023-08-24T00:18:15;29.40;47.40
3770;DHT22;1900;48.890;9.190;2023-08-24T00:20:40;29.40;47.40
3770;DHT22;1900;48.890;9.190;2023-08-24T00:23:06;29.40;47.40
3770;DHT22;1900;48.890;9.190;2023-08-24T00:25:32;29.30;47.40
3770;DHT22;1900;48.890;9.190;2023-08-24T00:27:58;29.30;47.40
3770;DHT22;1900;48.890;9.190;2023-08-24T00:30:24;29.30;47.50
3770;DHT22;1900;48.890;9.190;2023-08-24T00:32:49;29.30;47.50
3770;DHT22;1900;48.890;9.190;2023-08-24T00:35:15;29.20;47.50
3770;DHT22;1900;48.890;9.190;2023-08-24T00:37:41;29.20;47.50
3770;DHT22;1900;48.890;9.190;2023-08-24T00:40:08;29.20;47.60
3770;DHT22;1900;48.890;9.190;2023-08-24T00:42:39;29.20;47.60
3770;DHT22;1900;48.890;9.190;2023-08-24T00:45:07;29.20;47.70
3770;DHT22;1900;48.890;9.190;2023-08-24T00:47:33;29.20;47.70
3770;DHT22;1900;48.890;9.190;2023-08-24T00:50:00;29.10;47.60
3770;DHT22;1900;48.890;9.190;2023-08-24T00:52:28;29.10;47.70
3770;DHT22;1900;48.890;9.190;2023-08-24T00:54:54;29.10;47.70
3770;DHT22;1900;48.890;9.190;2023-08-24T00:57:21;29.10;47.70
3770;DHT22;1900;48.890;9.190;2023-08-24T00:59:47;29.10;47.70
3770;DHT22;1900;48.890;9.190;2023-08-24T01:02:12;29.00;47.70
3770;DHT22;1900;48.890;9.190;2023-08-24T01:04:41;29.00;47.70
3770;DHT22;1900;48.890;9.190;2023-08-24T01:07:08;29.00;47.80
3770;DHT22;1900;48.890;9.190;2023-08-24T01:09:35;28.90;47.70
3770;DHT22;1900;48.890;9.190;2023-08-24T01:12:28;28.90;47.80
3770;DHT22;1900;48.890;9.190;2023-08-24T01:15:13;29.00;48.00
3770;DHT22;1900;48.890;9.190;2023-08-24T01:17:42;28.90;47.80
3770;DHT22;1900;48.890;9.190;2023-08-24T01:20:09;28.90;48.00
3770;DHT22;1900;48.890;9.190;2023-08-24T01:22:52;28.90;47.90
3770;DHT22;1900;48.890;9.190;2023-08-24T01:28:01;28.80;47.80
3770;DHT22;1900;48.890;9.190;2023-08-24T01:30:28;28.80;47.90
3770;DHT22;1900;48.890;9.190;2023-08-24T01:32:54;28.70;47.80
3770;DHT22;1900;48.890;9.190;2023-08-24T01:35:19;28.70;48.50
3770;DHT22;1900;48.890;9.190;2023-08-24T01:37:45;28.70;47.90
3770;DHT22;1900;48.890;9.190;2023-08-24T01:40:20;28.70;47.90
3770;DHT22;1900;48.890;9.190;2023-08-24T01:45:18;28.60;47.80
3770;DHT22;1900;48.890;9.190;2023-08-24T01:47:47;28.60;48.00
3770;DHT22;1900;48.890;9.190;2023-08-24T01:50:14;28.60;48.00
3770;DHT22;1900;48.890;9.190;2023-08-24T01:52:40;28.50;47.90
3770;DHT22;1900;48.890;9.190;2023-08-24T01:55:10;28.50;48.00
3770;DHT22;1900;48.890;9.190;2023-08-24T01:57:36;28.50;48.10
3770;DHT22;1900;48.890;9.190;2023-08-24T02:00:02;28.40;48.00
3770;DHT22;1900;48.890;9.190;2023-08-24T02:02:39;28.40;48.00
3770;DHT22;1900;48.890;9.190;2023-08-24T02:05:05;28.40;48.10
3770;DHT22;1900;48.890;9.190;2023-08-24T02:07:31;28.40;48.20
3770;DHT22;1900;48.890;9.190;2023-08-24T02:09:56;28.30;48.10
3770;DHT22;1900;48.890;9.190;2023-08-24T02:12:22;28.30;48.80
3770;DHT22;1900;48.890;9.190;2023-08-24T02:14:48;28.30;48.20
3770;DHT22;1900;48.890;9.190;2023-08-24T02:17:15;28.30;48.20
3770;DHT22;1900;48.890;9.190;2023-08-24T02:19:41;28.30;48.30
3770;DHT22;1900;48.890;9.190;2023-08-24T02:22:08;28.30;48.40
3770;DHT22;1900;48.890;9.190;2023-08-24T02:24:34;28.20;48.30
3770;DHT22;1900;48.890;9.190;2023-08-24T02:27:00;28.20;48.30
3770;DHT22;1900;48.890;9.190;2023-08-24T02:29:26;28.20;48.40
3770;DHT22;1900;48.890;9.190;2023-08-24T02:31:51;28.20;48.50
3770;DHT22;1900;48.890;9.190;2023-08-24T02:34:17;28.20;48.60
3770;DHT22;1900;48.890;9.190;2023-08-24T02:36:43;28.20;48.70
3770;DHT22;1900;48.890;9.190;2023-08-24T02:39:09;28.20;48.70
3770;DHT22;1900;48.890;9.190;2023-08-24T02:41:35;28.10;48.60
3770;DHT22;1900;48.890;9.190;2023-08-24T02:44:01;28.10;48.60
3770;DHT22;1900;48.890;9.190;2023-08-24T02:46:27;28.10;48.70
3770;DHT22;1900;48.890;9.190;2023-08-24T02:48:53;28.10;48.70
3770;DHT22;1900;48.890;9.190;2023-08-24T02:51:22;28.10;48.80
3770;DHT22;1900;48.890;9.190;2023-08-24T02:53:48;28.10;48.90
3770;DHT22;1900;48.890;9.190;2023-08-24T02:56:14;28.10;48.90
3770;DHT22;1900;48.890;9.190;2023-08-24T02:58:40;28.10;48.90
3770;DHT22;1900;48.890;9.190;2023-08-24T03:01:06;28.10;48.90
3770;DHT22;1900;48.890;9.190;2023-08-24T03:03:36;28.10;49.00
3770;DHT22;1900;48.890;9.190;2023-08-24T03:06:06;28.10;49.00
3770;DHT22;1900;48.890;9.190;2023-08-24T03:08:34;28.00;49.00
3770;DHT22;1900;48.890;9.190;2023-08-24T03:11:01;28.00;49.00
3770;DHT22;1900;48.890;9.190;2023-08-24T03:13:30;28.00;49.00
3770;DHT22;1900;48.890;9.190;2023-08-24T03:15:56;28.00;49.00
3770;DHT22;1900;48.890;9.190;2023-08-24T03:18:26;28.00;49.00
3770;DHT22;1900;48.890;9.190;2023-08-24T03:20:52;28.00;49.10
3770;DHT22;1900;48.890;9.190;2023-08-24T03:23:17;28.00;49.10
3770;DHT22;1900;48.890;9.190;2023-08-24T03:25:43;28.00;49.10
3770;DHT22;1900;48.890;9.190;2023-08-24T03:28:09;27.90;49.10
3770;DHT22;1900;48.890;9.190;2023-08-24T03:30:37;27.90;49.10
3770;DHT22;1900;48.890;9.190;2023-08-24T03:33:04;27.90;49.20
3770;DHT22;1900;48.890;9.190;2023-08-24T03:35:33;27.90;49.20
3770;DHT22;1900;48.890;9.190;2023-08-24T03:37:59;27.90;49.40
3770;DHT22;1900;48.890;9.190;2023-08-24T03:40:26;27.90;49.20
3770;DHT22;1900;48.890;9.190;2023-08-24T03:42:52;27.90;49.30
3770;DHT22;1900;48.890;9.190;2023-08-24T03:45:19;27.80;49.20
3770;DHT22;1900;48.890;9.190;2023-08-24T03:47:45;27.80;49.30
3770;DHT22;1900;48.890;9.190;2023-08-24T03:50:11;27.80;49.30
3770;DHT22;1900;48.890;9.190;2023-08-24T03:52:36;27.80;49.30
3770;DHT22;1900;48.890;9.190;2023-08-24T03:55:02;27.80;49.30
3770;DHT22;1900;48.890;9.190;2023-08-24T03:57:28;27.80;49.30
3770;DHT22;1900;48.890;9.190;2023-08-24T03:59:54;27.80;49.40
3770;DHT22;1900;48.890;9.190;2023-08-24T04:02:20;27.70;49.40
3770;DHT22;1900;48.890;9.190;2023-08-24T04:04:46;27.70;49.40
3770;DHT22;1900;48.890;9.190;2023-08-24T04:07:12;27.70;49.40
3770;DHT22;1900;48.890;9.190;2023-08-24T04:09:37;27.70;49.50
3770;DHT22;1900;48.890;9.190;2023-08-24T04:12:03;27.70;49.50
3770;DHT22;1900;48.890;9.190;2023-08-24T04:14:29;27.70;49.50
3770;DHT22;1900;48.890;9.190;2023-08-24T04:16:55;27.70;49.50
3770;DHT22;1900;48.890;9.190;2023-08-24T04:19:21;27.70;49.60
3770;DHT22;1900;48.890;9.190;2023-08-24T04:21:47;27.60;49.50
3770;DHT22;1900;48.890;9.190;2023-08-24T04:24:12;27.60;50.10
3770;DHT22;1900;48.890;9.190;2023-08-24T04:26:38;27.60;49.50
3770;DHT22;1900;48.890;9.190;2023-08-24T04:29:04;27.60;49.50
3770;DHT22;1900;48.890;9.190;2023-08-24T04:31:29;27.60;49.60
3770;DHT22;1900;48.890;9.190;2023-08-24T04:33:55;27.60;49.50
3770;DHT22;1900;48.890;9.190;2023-08-24T04:36:21;27.60;49.50
3770;DHT22;1900;48.890;9.190;2023-08-24T04:38:46;27.50;49.50
3770;DHT22;1900;48.890;9.190;2023-08-24T04:41:12;27.50;49.60
3770;DHT22;1900;48.890;9.190;2023-08-24T04:43:41;27.50;49.60
3770;DHT22;1900;48.890;9.190;2023-08-24T04:46:06;27.50;49.70
3770;DHT22;1900;48.890;9.190;2023-08-24T04:48:33;27.50;49.60
3770;DHT22;1900;48.890;9.190;2023-08-24T04:51:03;27.50;49.70
3770;DHT22;1900;48.890;9.190;2023-08-24T04:53:29;27.50;49.80
3770;DHT22;1900;48.890;9.190;2023-08-24T04:55:54;27.50;49.70
3770;DHT22;1900;48.890;9.190;2023-08-24T04:58:22;27.50;49.80
3770;DHT22;1900;48.890;9.190;2023-08-24T05:00:48;27.50;49.80
3770;DHT22;1900;48.890;9.190;2023-08-24T05:03:15;27.50;49.90
3770;DHT22;1900;48.890;9.190;2023-08-24T05:05:41;27.50;49.80
3770;DHT22;1900;48.890;9.190;2023-08-24T05:08:07;27.50;49.70
3770;DHT22;1900;48.890;9.190;2023-08-24T05:10:35;27.40;49.70
3770;DHT22;1900;48.890;9.190;2023-08-24T05:13:01;27.40;49.70
3770;DHT22;1900;48.890;9.190;2023-08-24T05:15:27;27.40;49.80
3770;DHT22;1900;48.890;9.190;2023-08-24T05:17:53;27.40;49.80
3770;DHT22;1900;48.890;9.190;2023-08-24T05:20:22;27.40;49.70
3770;DHT22;1900;48.890;9.190;2023-08-24T05:22:48;27.30;49.70
3770;DHT22;1900;48.890;9.190;2023-08-24T05:25:14;27.30;49.70
3770;DHT22;1900;48.890;9.190;2023-08-24T05:27:42;27.30;49.80
3770;DHT22;1900;48.890;9.190;2023-08-24T05:30:08;27.20;49.80
3770;DHT22;1900;48.890;9.190;2023-08-24T05:32:34;27.20;49.90
3770;DHT22;1900;48.890;9.190;2023-08-24T05:35:08;27.20;49.80
3770;DHT22;1900;48.890;9.190;2023-08-24T05:37:34;27.20;50.00
3770;DHT22;1900;48.890;9.190;2023-08-24T05:40:01;27.10;50.00
3770;DHT22;1900;48.890;9.190;2023-08-24T05:42:27;27.10;50.00
3770;DHT22;1900;48.890;9.190;2023-08-24T05:44:53;27.10;50.00
3770;DHT22;1900;48.890;9.190;2023-08-24T05:47:18;27.10;50.20
3770;DHT22;1900;48.890;9.190;2023-08-24T05:49:44;27.10;50.20
3770;DHT22;1900;48.890;9.190;2023-08-24T05:52:10;27.10;50.20
3770;DHT22;1900;48.890;9.190;2023-08-24T05:54:37;27.10;50.30
3770;DHT22;1900;48.890;9.190;2023-08-24T05:57:04;27.10;50.40
3770;DHT22;1900;48.890;9.190;2023-08-24T05:59:30;27.10;50.40
3770;DHT22;1900;48.890;9.190;2023-08-24T06:01:56;27.10;50.50
3770;DHT22;1900;48.890;9.190;2023-08-24T06:04:22;27.10;50.60
3770;DHT22;1900;48.890;9.190;2023-08-24T06:06:47;27.20;50.70
3770;DHT22;1900;48.890;9.190;2023-08-24T06:09:13;27.20;50.70
3770;DHT22;1900;48.890;9.190;2023-08-24T06:11:40;27.20;50.70
3770;DHT22;1900;48.890;9.190;2023-08-24T06:14:06;27.20;50.80
3770;DHT22;1900;48.890;9.190;2023-08-24T06:16:32;27.20;50.80
3770;DHT22;1900;48.890;9.190;2023-08-24T06:18:58;27.20;50.90
3770;DHT22;1900;48.890;9.190;2023-08-24T06:21:23;27.30;51.00
3770;DHT22;1900;48.890;9.190;2023-08-24T06:23:49;27.30;51.00
3770;DHT22;1900;48.890;9.190;2023-08-24T06:26:15;27.40;51.10
3770;DHT22;1900;48.890;9.190;2023-08-24T06:28:40;27.40;51.10
3770;DHT22;1900;48.890;9.190;2023-08-24T06:31:06;27.50;51.40
3770;DHT22;1900;48.890;9.190;2023-08-24T06:33:36;27.50;51.20
3770;DHT22;1900;48.890;9.190;2023-08-24T06:36:02;27.50;51.30
3770;DHT22;1900;48.890;9.190;2023-08-24T06:38:30;27.50;51.30
3770;DHT22;1900;48.890;9.190;2023-08-24T06:40:58;27.60;51.40
3770;DHT22;1900;48.890;9.190;2023-08-24T06:43:27;27.60;51.40
3770;DHT22;1900;48.890;9.190;2023-08-24T06:45:54;27.60;51.40
3770;DHT22;1900;48.890;9.190;2023-08-24T06:48:20;27.70;51.60
3770;DHT22;1900;48.890;9.190;2023-08-24T06:50:45;27.70;51.50
3770;DHT22;1900;48.890;9.190;2023-08-24T06:53:11;27.70;52.10
3770;DHT22;1900;48.890;9.190;2023-08-24T06:55:37;27.80;51.70
3770;DHT22;1900;48.890;9.190;2023-08-24T06:58:03;27.80;51.90
3770;DHT22;1900;48.890;9.190;2023-08-24T07:00:32;27.90;51.90
3770;DHT22;1900;48.890;9.190;2023-08-24T07:02:57;27.90;51.90
3770;DHT22;1900;48.890;9.190;2023-08-24T07:05:23;27.90;52.00
3770;DHT22;1900;48.890;9.190;2023-08-24T07:07:52;28.00;52.10
3770;DHT22;1900;48.890;9.190;2023-08-24T07:10:19;28.10;52.20
3770;DHT22;1900;48.890;9.190;2023-08-24T07:12:45;28.10;52.20
3770;DHT22;1900;48.890;9.190;2023-08-24T07:15:12;28.20;52.20
3770;DHT22;1900;48.890;9.190;2023-08-24T07:17:37;28.20;52.30
3770;DHT22;1900;48.890;9.190;2023-08-24T07:20:04;28.30;52.30
3770;DHT22;1900;48.890;9.190;2023-08-24T07:22:39;28.30;52.30
3770;DHT22;1900;48.890;9.190;2023-08-24T07:25:06;28.40;52.50
3770;DHT22;1900;48.890;9.190;2023-08-24T07:27:32;28.40;52.20
3770;DHT22;1900;48.890;9.190;2023-08-24T07:29:59;28.40;52.20
3770;DHT22;1900;48.890;9.190;2023-08-24T07:32:26;28.40;52.10
3770;DHT22;1900;48.890;9.190;2023-08-24T07:34:52;28.40;52.10
3770;DHT22;1900;48.890;9.190;2023-08-24T07:37:18;28.40;52.20
3770;DHT22;1900;48.890;9.190;2023-08-24T07:39:44;28.40;52.30
3770;DHT22;1900;48.890;9.190;2023-08-24T07:42:10;28.50;52.40
3770;DHT22;1900;48.890;9.190;2023-08-24T07:44:35;28.50;52.40
3770;DHT22;1900;48.890;9.190;2023-08-24T07:47:01;28.50;52.30
3770;DHT22;1900;48.890;9.190;2023-08-24T07:49:28;28.50;52.30
3770;DHT22;1900;48.890;9.190;2023-08-24T07:51:53;28.50;52.50
3770;DHT22;1900;48.890;9.190;2023-08-24T07:54:19;28.50;52.70
3770;DHT22;1900;48.890;9.190;2023-08-24T07:56:45;28.60;52.60
3770;DHT22;1900;48.890;9.190;2023-08-24T07:59:11;28.70;52.90
3770;DHT22;1900;48.890;9.190;2023-08-24T08:01:37;28.80;52.90
3770;DHT22;1900;48.890;9.190;2023-08-24T08:04:03;28.80;53.00
3770;DHT22;1900;48.890;9.190;2023-08-24T08:06:29;28.80;53.00
3770;DHT22;1900;48.890;9.190;2023-08-24T08:08:54;28.90;53.20
3770;DHT22;1900;48.890;9.190;2023-08-24T08:11:20;29.00;53.40
3770;DHT22;1900;48.890;9.190;2023-08-24T08:13:46;29.10;53.50
3770;DHT22;1900;48.890;9.190;2023-08-24T08:16:12;29.20;53.60
3770;DHT22;1900;48.890;9.190;2023-08-24T08:18:38;29.30;53.50
3770;DHT22;1900;48.890;9.190;2023-08-24T08:21:14;29.40;53.70
3770;DHT22;1900;48.890;9.190;2023-08-24T08:23:40;29.40;53.70
3770;DHT22;1900;48.890;9.190;2023-08-24T08:26:09;29.60;53.70
3770;DHT22;1900;48.890;9.190;2023-08-24T08:28:35;29.70;53.80
3770;DHT22;1900;48.890;9.190;2023-08-24T08:31:01;29.70;53.80
3770;DHT22;1900;48.890;9.190;2023-08-24T08:33:27;29.90;53.80
3770;DHT22;1900;48.890;9.190;2023-08-24T08:35:53;29.90;53.80
3770;DHT22;1900;48.890;9.190;2023-08-24T08:38:18;30.00;53.90
3770;DHT22;1900;48.890;9.190;2023-08-24T08:40:49;30.10;54.00
3770;DHT22;1900;48.890;9.190;2023-08-24T08:43:15;30.20;54.00
3770;DHT22;1900;48.890;9.190;2023-08-24T08:45:41;30.30;54.00
3770;DHT22;1900;48.890;9.190;2023-08-24T08:48:07;30.40;54.10
3770;DHT22;1900;48.890;9.190;2023-08-24T08:50:34;30.50;54.10
3770;DHT22;1900;48.890;9.190;2023-08-24T08:53:01;30.60;54.20
3770;DHT22;1900;48.890;9.190;2023-08-24T08:55:27;30.70;54.30
3770;DHT22;1900;48.890;9.190;2023-08-24T08:57:56;30.80;54.40
3770;DHT22;1900;48.890;9.190;2023-08-24T09:00:24;30.90;54.20
3770;DHT22;1900;48.890;9.190;2023-08-24T09:02:51;31.00;54.30
3770;DHT22;1900;48.890;9.190;2023-08-24T09:05:18;31.00;54.30
3770;DHT22;1900;48.890;9.190;2023-08-24T09:07:46;31.10;54.30
3770;DHT22;1900;48.890;9.190;2023-08-24T09:10:13;31.20;54.40
3770;DHT22;1900;48.890;9.190;2023-08-24T09:12:39;31.30;54.40
3770;DHT22;1900;48.890;9.190;2023-08-24T09:15:08;31.40;54.40
3770;DHT22;1900;48.890;9.190;2023-08-24T09:17:34;31.50;54.40
3770;DHT22;1900;48.890;9.190;2023-08-24T09:20:01;31.60;54.50
3770;DHT22;1900;48.890;9.190;2023-08-24T09:22:38;31.70;54.50
3770;DHT22;1900;48.890;9.190;2023-08-24T09:25:10;31.80;54.60
3770;DHT22;1900;48.890;9.190;2023-08-24T09:27:36;31.90;54.60
3770;DHT22;1900;48.890;9.190;2023-08-24T09:30:02;32.00;54.70
3770;DHT22;1900;48.890;9.190;2023-08-24T09:32:29;32.10;54.70
3770;DHT22;1900;48.890;9.190;2023-08-24T09:34:55;32.20;54.70
3770;DHT22;1900;48.890;9.190;2023-08-24T09:37:21;32.30;54.70
3770;DHT22;1900;48.890;9.190;2023-08-24T09:39:47;32.50;54.80
3770;DHT22;1900;48.890;9.190;2023-08-24T09:42:13;32.50;54.80
3770;DHT22;1900;48.890;9.190;2023-08-24T09:44:46;32.70;54.90
3770;DHT22;1900;48.890;9.190;2023-08-24T09:47:12;32.80;54.80
3770;DHT22;1900;48.890;9.190;2023-08-24T09:49:37;32.90;54.90
3770;DHT22;1900;48.890;9.190;2023-08-24T09:52:07;33.00;54.80
3770;DHT22;1900;48.890;9.190;2023-08-24T09:54:37;33.10;54.80
3770;DHT22;1900;48.890;9.190;2023-08-24T09:57:05;33.20;54.90
3770;DHT22;1900;48.890;9.190;2023-08-24T09:59:32;33.30;55.00
3770;DHT22;1900;48.890;9.190;2023-08-24T10:02:00;33.40;55.00
3770;DHT22;1900;48.890;9.190;2023-08-24T10:04:29;33.50;55.00
3770;DHT22;1900;48.890;9.190;2023-08-24T10:07:06;33.70;55.10
3770;DHT22;1900;48.890;9.190;2023-08-24T10:09:39;33.80;55.00
3770;DHT22;1900;48.890;9.190;2023-08-24T10:12:10;33.90;55.00
3770;DHT22;1900;48.890;9.190;2023-08-24T10:15:01;34.00;54.80
3770;DHT22;1900;48.890;9.190;2023-08-24T10:17:32;34.10;54.90
3770;DHT22;1900;48.890;9.190;2023-08-24T10:20:02;34.20;55.00
3770;DHT22;1900;48.890;9.190;2023-08-24T10:22:31;34.30;55.00
3770;DHT22;1900;48.890;9.190;2023-08-24T10:24:58;34.40;54.90
3770;DHT22;1900;48.890;9.190;2023-08-24T10:27:26;34.50;55.00
3770;DHT22;1900;48.890;9.190;2023-08-24T10:29:52;34.60;55.00
3770;DHT22;1900;48.890;9.190;2023-08-24T10:32:20;34.70;55.20
3770;DHT22;1900;48.890;9.190;2023-08-24T10:34:46;34.90;55.10
3770;DHT22;1900;48.890;9.190;2023-08-24T10:37:12;35.00;54.90
3770;DHT22;1900;48.890;9.190;2023-08-24T10:39:44;35.10;54.90
3770;DHT22;1900;48.890;9.190;2023-08-24T10:42:12;35.20;55.00
3770;DHT22;1900;48.890;9.190;2023-08-24T10:44:38;35.30;54.90
3770;DHT22;1900;48.890;9.190;2023-08-24T10:47:11;35.40;54.90
3770;DHT22;1900;48.890;9.190;2023-08-24T10:49:38;35.50;54.70
3770;DHT22;1900;48.890;9.190;2023-08-24T10:54:49;35.70;54.80
3770;DHT22;1900;48.890;9.190;2023-08-24T11:02:46;36.00;54.90
3770;DHT22;1900;48.890;9.190;2023-08-24T11:05:32;36.10;54.90
3770;DHT22;1900;48.890;9.190;2023-08-24T11:08:03;36.20;54.80
3770;DHT22;1900;48.890;9.190;2023-08-24T11:13:17;36.40;54.70
3770;DHT22;1900;48.890;9.190;2023-08-24T11:15:49;36.50;54.90
3770;DHT22;1900;48.890;9.190;2023-08-24T11:18:27;36.60;54.90
3770;DHT22;1900;48.890;9.190;2023-08-24T11:21:05;36.70;54.50
3770;DHT22;1900;48.890;9.190;2023-08-24T11:23:31;36.80;54.70
3770;DHT22;1900;48.890;9.190;2023-08-24T11:26:00;36.90;54.70
3770;DHT22;1900;48.890;9.190;2023-08-24T11:28:28;37.00;54.70
3770;DHT22;1900;48.890;9.190;2023-08-24T11:30:55;37.10;54.70
3770;DHT22;1900;48.890;9.190;2023-08-24T11:33:32;37.10;54.80
3770;DHT22;1900;48.890;9.190;2023-08-24T11:35:59;37.20;54.70
3770;DHT22;1900;48.890;9.190;2023-08-24T11:38:35;37.30;54.70
3770;DHT22;1900;48.890;9.190;2023-08-24T11:41:17;37.40;54.80
3770;DHT22;1900;48.890;9.190;2023-08-24T11:43:44;37.50;54.80
3770;DHT22;1900;48.890;9.190;2023-08-24T11:46:10;37.60;55.10
3770;DHT22;1900;48.890;9.190;2023-08-24T11:48:36;37.70;55.00
3770;DHT22;1900;48.890;9.190;2023-08-24T11:51:08;37.80;55.00
3770;DHT22;1900;48.890;9.190;2023-08-24T11:53:46;37.90;55.00
3770;DHT22;1900;48.890;9.190;2023-08-24T11:56:13;38.00;55.10
3770;DHT22;1900;48.890;9.190;2023-08-24T11:58:43;38.10;55.30
3770;DHT22;1900;48.890;9.190;2023-08-24T12:01:10;38.20;55.30
3770;DHT22;1900;48.890;9.190;2023-08-24T12:03:37;38.30;55.00
3770;DHT22;1900;48.890;9.190;2023-08-24T12:06:14;38.50;55.20
3770;DHT22;1900;48.890;9.190;2023-08-24T12:08:41;38.60;55.10
3770;DHT22;1900;48.890;9.190;2023-08-24T12:11:12;38.70;55.30
3770;DHT22;1900;48.890;9.190;2023-08-24T12:13:37;38.80;55.20
3770;DHT22;1900;48.890;9.190;2023-08-24T12:16:04;38.90;55.40
3770;DHT22;1900;48.890;9.190;2023-08-24T12:18:30;39.10;55.50
3770;DHT22;1900;48.890;9.190;2023-08-24T12:20:59;39.20;55.30
3770;DHT22;1900;48.890;9.190;2023-08-24T12:23:27;39.20;55.10
3770;DHT22;1900;48.890;9.190;2023-08-24T12:25:54;39.30;55.10
3770;DHT22;1900;48.890;9.190;2023-08-24T12:28:21;39.50;55.20
3770;DHT22;1900;48.890;9.190;2023-08-24T12:30:49;39.60;55.70
3770;DHT22;1900;48.890;9.190;2023-08-24T12:33:25;39.60;54.90
3770;DHT22;1900;48.890;9.190;2023-08-24T12:35:52;39.70;54.80
3770;DHT22;1900;48.890;9.190;2023-08-24T12:38:19;39.70;54.70
3770;DHT22;1900;48.890;9.190;2023-08-24T12:40:44;39.80;54.80
3770;DHT22;1900;48.890;9.190;2023-08-24T12:43:10;39.80;54.40
3770;DHT22;1900;48.890;9.190;2023-08-24T12:45:36;39.90;54.40
3770;DHT22;1900;48.890;9.190;2023-08-24T12:48:04;40.00;54.70
3770;DHT22;1900;48.890;9.190;2023-08-24T12:50:30;40.20;54.40
3770;DHT22;1900;48.890;9.190;2023-08-24T12:52:55;40.20;54.40
3770;DHT22;1900;48.890;9.190;2023-08-24T12:55:25;40.20;53.80
3770;DHT22;1900;48.890;9.190;2023-08-24T12:57:51;40.30;54.00
3770;DHT22;1900;48.890;9.190;2023-08-24T13:00:18;40.40;54.30
3770;DHT22;1900;48.890;9.190;2023-08-24T13:02:44;40.50;54.60
3770;DHT22;1900;48.890;9.190;2023-08-24T13:05:09;40.60;54.50
3770;DHT22;1900;48.890;9.190;2023-08-24T13:07:36;40.70;54.30
3770;DHT22;1900;48.890;9.190;2023-08-24T13:10:02;40.70;54.20
3770;DHT22;1900;48.890;9.190;2023-08-24T13:12:29;40.80;54.10
3770;DHT22;1900;48.890;9.190;2023-08-24T13:14:54;40.80;54.00
3770;DHT22;1900;48.890;9.190;2023-08-24T13:17:20;40.80;53.80
3770;DHT22;1900;48.890;9.190;2023-08-24T13:19:46;40.90;53.80
3770;DHT22;1900;48.890;9.190;2023-08-24T13:22:14;40.90;53.80
3770;DHT22;1900;48.890;9.190;2023-08-24T13:24:41;40.90;53.60
3770;DHT22;1900;48.890;9.190;2023-08-24T13:27:11;41.00;53.80
3770;DHT22;1900;48.890;9.190;2023-08-24T13:29:37;41.00;52.10
3770;DHT22;1900;48.890;9.190;2023-08-24T13:32:06;41.00;52.90
3770;DHT22;1900;48.890;9.190;2023-08-24T13:34:31;41.00;52.90
3770;DHT22;1900;48.890;9.190;2023-08-24T13:36:58;41.00;53.00
3770;DHT22;1900;48.890;9.190;2023-08-24T13:39:26;41.10;53.10
3770;DHT22;1900;48.890;9.190;2023-08-24T13:41:56;41.10;53.10
3770;DHT22;1900;48.890;9.190;2023-08-24T13:44:22;41.20;53.40
3770;DHT22;1900;48.890;9.190;2023-08-24T13:46:47;41.20;53.60
3770;DHT22;1900;48.890;9.190;2023-08-24T13:49:13;41.40;53.80
3770;DHT22;1900;48.890;9.190;2023-08-24T13:51:39;41.40;53.70
3770;DHT22;1900;48.890;9.190;2023-08-24T13:54:18;41.50;53.60
3770;DHT22;1900;48.890;9.190;2023-08-24T13:56:45;41.70;53.50
3770;DHT22;1900;48.890;9.190;2023-08-24T13:59:12;41.80;53.60
3770;DHT22;1900;48.890;9.190;2023-08-24T14:01:37;41.90;53.50
3770;DHT22;1900;48.890;9.190;2023-08-24T14:04:03;42.00;53.20
3770;DHT22;1900;48.890;9.190;2023-08-24T14:06:30;42.10;53.10
3770;DHT22;1900;48.890;9.190;2023-08-24T14:08:56;42.10;53.10
3770;DHT22;1900;48.890;9.190;2023-08-24T14:11:23;42.20;53.00
3770;DHT22;1900;48.890;9.190;2023-08-24T14:13:49;42.20;52.40
3770;DHT22;1900;48.890;9.190;2023-08-24T14:16:14;42.30;52.20
3770;DHT22;1900;48.890;9.190;2023-08-24T14:18:40;42.30;51.90
3770;DHT22;1900;48.890;9.190;2023-08-24T14:21:06;42.20;51.40
3770;DHT22;1900;48.890;9.190;2023-08-24T14:23:31;42.10;51.20
3770;DHT22;1900;48.890;9.190;2023-08-24T14:25:57;42.00;51.00
3770;DHT22;1900;48.890;9.190;2023-08-24T14:28:23;41.90;51.00
3770;DHT22;1900;48.890;9.190;2023-08-24T14:30:50;41.80;50.90
3770;DHT22;1900;48.890;9.190;2023-08-24T14:33:15;41.60;50.70
3770;DHT22;1900;48.890;9.190;2023-08-24T14:35:49;41.50;50.50
3770;DHT22;1900;48.890;9.190;2023-08-24T14:38:14;41.40;50.50
3770;DHT22;1900;48.890;9.190;2023-08-24T14:40:40;41.30;50.60
3770;DHT22;1900;48.890;9.190;2023-08-24T14:43:05;41.20;50.60
3770;DHT22;1900;48.890;9.190;2023-08-24T14:45:31;41.00;50.40
3770;DHT22;1900;48.890;9.190;2023-08-24T14:47:57;40.90;50.40
3770;DHT22;1900;48.890;9.190;2023-08-24T14:50:23;40.80;50.40
3770;DHT22;1900;48.890;9.190;2023-08-24T14:52:48;40.60;50.20
3770;DHT22;1900;48.890;9.190;2023-08-24T14:55:14;40.50;50.20
3770;DHT22;1900;48.890;9.190;2023-08-24T14:57:40;40.30;50.00
3770;DHT22;1900;48.890;9.190;2023-08-24T15:00:06;40.20;50.00
3770;DHT22;1900;48.890;9.190;2023-08-24T15:02:35;40.00;49.70
3770;DHT22;1900;48.890;9.190;2023-08-24T15:05:03;39.80;49.50
3770;DHT22;1900;48.890;9.190;2023-08-24T15:07:29;39.70;49.50
3770;DHT22;1900;48.890;9.190;2023-08-24T15:09:55;39.50;49.80
3770;DHT22;1900;48.890;9.190;2023-08-24T15:12:21;39.20;49.80
3770;DHT22;1900;48.890;9.190;2023-08-24T15:15:00;38.80;49.00
3770;DHT22;1900;48.890;9.190;2023-08-24T15:17:28;38.40;48.80
3770;DHT22;1900;48.890;9.190;2023-08-24T15:19:55;37.90;48.80
3770;DHT22;1900;48.890;9.190;2023-08-24T15:22:22;37.40;48.90
3770;DHT22;1900;48.890;9.190;2023-08-24T15:24:48;36.90;48.60
3770;DHT22;1900;48.890;9.190;2023-08-24T15:27:13;36.40;48.40
3770;DHT22;1900;48.890;9.190;2023-08-24T15:29:39;36.00;48.40
3770;DHT22;1900;48.890;9.190;2023-08-24T15:32:05;35.50;48.50
3770;DHT22;1900;48.890;9.190;2023-08-24T15:34:31;35.00;48.40
3770;DHT22;1900;48.890;9.190;2023-08-24T15:36:56;34.70;48.60
3770;DHT22;1900;48.890;9.190;2023-08-24T15:39:22;34.40;48.90
3770;DHT22;1900;48.890;9.190;2023-08-24T15:41:48;34.10;49.10
3770;DHT22;1900;48.890;9.190;2023-08-24T15:44:13;33.90;49.20
3770;DHT22;1900;48.890;9.190;2023-08-24T15:46:39;33.70;49.30
3770;DHT22;1900;48.890;9.190;2023-08-24T15:49:05;33.50;49.70
3770;DHT22;1900;48.890;9.190;2023-08-24T15:51:30;33.30;49.50
3770;DHT22;1900;48.890;9.190;2023-08-24T15:53:56;33.10;49.50
3770;DHT22;1900;48.890;9.190;2023-08-24T15:56:22;33.00;49.70
3770;DHT22;1900;48.890;9.190;2023-08-24T15:58:48;32.80;49.70
3770;DHT22;1900;48.890;9.190;2023-08-24T16:01:14;32.70;49.80
3770;DHT22;1900;48.890;9.190;2023-08-24T16:03:39;32.50;49.70
3770;DHT22;1900;48.890;9.190;2023-08-24T16:06:08;32.30;49.80
3770;DHT22;1900;48.890;9.190;2023-08-24T16:08:33;32.10;49.70
3770;DHT22;1900;48.890;9.190;2023-08-24T16:10:59;31.90;49.80
3770;DHT22;1900;48.890;9.190;2023-08-24T16:13:25;31.80;49.80
3770;DHT22;1900;48.890;9.190;2023-08-24T16:15:51;31.60;50.00
3770;DHT22;1900;48.890;9.190;2023-08-24T16:18:22;31.50;50.10